createdAt,value
2018-09-16T00:01:28.594Z,90.83
2018-09-16T00:03:57.200Z,90.85
2018-09-16T00:06:25.884Z,91.20
2018-09-16T00:08:54.967Z,91.05
2018-09-16T00:11:23.651Z,91.29
2018-09-16T00:13:52.216Z,91.36
2018-09-16T00:16:21.194Z,92.26
2018-09-16T00:18:50.123Z,92.45
2018-09-16T00:21:18.962Z,91.84
2018-09-16T00:23:47.465Z,92.73
2018-09-16T00:26:16.093Z,92.97
2018-09-16T00:28:44.706Z,93.35
2018-09-16T00:31:13.335Z,92.87
2018-09-16T00:33:41.971Z,92.86
2018-09-16T00:36:10.583Z,92.99
2018-09-16T00:38:39.164Z,92.96
2018-09-16T00:41:07.756Z,93.40
2018-09-16T00:43:36.249Z,93.20
2018-09-16T00:46:04.924Z,93.75
2018-09-16T00:48:33.621Z,94.05
2018-09-16T00:51:02.228Z,94.49
2018-09-16T00:53:30.841Z,95.20
2018-09-16T00:55:59.351Z,94.84
2018-09-16T00:58:28.486Z,95.07
2018-09-16T01:00:58.456Z,95.24
2018-09-16T01:03:26.972Z,95.24
2018-09-16T01:06:00.960Z,96.04
2018-09-16T01:08:29.752Z,95.45
2018-09-16T01:10:58.902Z,94.80
2018-09-16T01:13:28.528Z,95.23
2018-09-16T01:15:57.508Z,95.55
2018-09-16T01:18:26.011Z,95.50
2018-09-16T01:20:55.029Z,94.95
2018-09-16T01:23:23.628Z,95.04
2018-09-16T01:25:52.255Z,95.07
2018-09-16T01:28:20.784Z,94.83
2018-09-16T01:30:49.346Z,94.96
2018-09-16T01:33:17.895Z,94.95
2018-09-16T01:35:46.443Z,95.23
2018-09-16T01:38:20.676Z,95.57
2018-09-16T01:40:49.667Z,95.81
2018-09-16T01:43:18.186Z,95.26
2018-09-16T01:45:46.976Z,95.64
2018-09-16T01:48:15.748Z,96.06
2018-09-16T01:50:44.453Z,96.22
2018-09-16T01:53:13.051Z,96.14
2018-09-16T01:55:41.610Z,96.00
2018-09-16T01:58:10.161Z,96.56
2018-09-16T02:00:39.188Z,95.87
2018-09-16T02:03:07.722Z,95.82
2018-09-16T02:05:41.701Z,96.53
2018-09-16T02:08:10.269Z,96.38
2018-09-16T02:10:38.978Z,96.07
2018-09-16T02:13:07.688Z,95.72
2018-09-16T02:15:36.251Z,96.62
2018-09-16T02:18:04.840Z,96.24
2018-09-16T02:20:33.439Z,96.68
2018-09-16T02:23:01.943Z,96.57
2018-09-16T02:25:30.490Z,95.84
2018-09-16T02:27:59.031Z,95.93
2018-09-16T02:30:27.623Z,96.55
2018-09-16T02:32:56.207Z,95.99
2018-09-16T02:35:25.615Z,96.75
2018-09-16T02:37:54.157Z,97.09
2018-09-16T02:40:23.196Z,96.59
2018-09-16T02:42:52.486Z,96.55
2018-09-16T02:45:21.034Z,96.51
2018-09-16T02:47:49.607Z,96.41
2018-09-16T02:50:18.094Z,96.39
2018-09-16T02:52:47.427Z,96.49
2018-09-16T02:55:16.631Z,96.73
2018-09-16T02:57:45.197Z,96.71
2018-09-16T03:00:13.715Z,96.52
2018-09-16T03:02:42.368Z,96.48
2018-09-16T03:05:10.969Z,97.32
2018-09-16T03:07:39.544Z,97.33
2018-09-16T03:10:08.127Z,97.27
2018-09-16T03:12:36.727Z,97.77
2018-09-16T03:15:05.377Z,98.04
2018-09-16T03:17:34.123Z,97.94
2018-09-16T03:20:02.773Z,97.70
2018-09-16T03:22:31.375Z,97.07
2018-09-16T03:24:59.916Z,97.73
2018-09-16T03:27:29.232Z,97.85
2018-09-16T03:29:57.803Z,97.12
2018-09-16T03:32:26.378Z,96.81
2018-09-16T03:34:54.903Z,97.32
2018-09-16T03:37:23.476Z,97.86
2018-09-16T03:39:52.129Z,97.67
2018-09-16T03:42:21.269Z,97.46
2018-09-16T03:44:50.569Z,98.17
2018-09-16T03:47:19.151Z,97.47
2018-09-16T03:49:47.712Z,98.46
2018-09-16T03:52:16.218Z,98.31
2018-09-16T03:54:44.710Z,98.73
2018-09-16T03:57:13.353Z,98.53
2018-09-16T03:59:42.084Z,98.09
2018-09-16T04:02:11.773Z,97.99
2018-09-16T04:04:40.297Z,98.69
2018-09-16T04:07:08.935Z,98.53
2018-09-16T04:09:38.672Z,99.01
2018-09-16T04:12:07.321Z,98.56
2018-09-16T04:14:35.837Z,99.34
2018-09-16T04:17:04.394Z,99.60
2018-09-16T04:19:33.682Z,99.68
2018-09-16T04:22:02.267Z,99.06
2018-09-16T04:24:31.068Z,99.31
2018-09-16T04:26:59.700Z,98.88
2018-09-16T04:29:28.277Z,99.41
2018-09-16T04:31:56.951Z,99.23
2018-09-16T04:34:25.593Z,99.50
2018-09-16T04:36:55.163Z,99.17
2018-09-16T04:39:23.748Z,99.13
2018-09-16T04:41:52.596Z,98.98
2018-09-16T04:44:21.109Z,100.00
2018-09-16T04:46:49.747Z,100.00
2018-09-16T04:49:18.393Z,100.00
2018-09-16T04:51:47.472Z,100.00
2018-09-16T04:54:16.137Z,100.00
2018-09-16T04:56:44.807Z,100.00
2018-09-16T04:59:13.325Z,100.00
2018-09-16T05:01:41.927Z,100.00
2018-09-16T05:04:10.567Z,100.00
2018-09-16T05:06:39.708Z,100.00
2018-09-16T05:09:09.978Z,100.00
2018-09-16T05:11:38.711Z,100.00
2018-09-16T05:14:07.605Z,100.00
2018-09-16T05:16:36.752Z,100.00
2018-09-16T05:19:06.455Z,99.37
2018-09-16T05:21:35.376Z,99.66
2018-09-16T05:24:04.006Z,100.00
2018-09-16T05:26:32.920Z,99.81
2018-09-16T05:29:01.767Z,99.42
2018-09-16T05:31:30.351Z,99.92
2018-09-16T05:33:59.010Z,99.19
2018-09-16T05:36:27.699Z,99.44
2018-09-16T05:38:56.196Z,99.05
2018-09-16T05:41:24.764Z,99.00
2018-09-16T05:43:53.402Z,99.79
2018-09-16T05:46:23.064Z,99.54
2018-09-16T05:48:51.932Z,99.03
2018-09-16T05:51:20.434Z,98.70
2018-09-16T05:53:49.709Z,98.69
2018-09-16T05:56:18.295Z,97.81
2018-09-16T05:58:46.967Z,97.30
2018-09-16T06:01:17.486Z,98.06
2018-09-16T06:03:46.012Z,97.75
2018-09-16T06:06:14.769Z,98.50
2018-09-16T06:08:43.322Z,98.99
2018-09-16T06:11:11.949Z,98.48
2018-09-16T06:13:40.715Z,98.84
2018-09-16T06:16:09.213Z,98.43
2018-09-16T06:18:37.785Z,96.53
2018-09-16T06:21:06.560Z,96.79
2018-09-16T06:23:35.104Z,95.82
2018-09-16T06:26:04.148Z,95.83
2018-09-16T06:28:32.632Z,95.40
2018-09-16T06:31:01.552Z,94.62
2018-09-16T06:33:30.107Z,93.54
2018-09-16T06:35:58.674Z,91.40
2018-09-16T06:38:27.324Z,92.48
2018-09-16T06:40:55.840Z,91.26
2018-09-16T06:43:24.318Z,89.72
2018-09-16T06:45:53.568Z,88.42
2018-09-16T06:48:22.425Z,88.11
2018-09-16T06:50:51.301Z,91.70
2018-09-16T06:53:19.919Z,89.64
2018-09-16T06:55:48.382Z,90.47
2018-09-16T06:58:18.259Z,90.49
2018-09-16T07:00:46.962Z,89.59
2018-09-16T07:03:15.779Z,89.92
2018-09-16T07:05:44.581Z,88.16
2018-09-16T07:08:13.208Z,86.95
2018-09-16T07:10:41.884Z,87.30
2018-09-16T07:13:10.445Z,86.00
2018-09-16T07:15:39.525Z,86.45
2018-09-16T07:18:08.417Z,87.67
2018-09-16T07:20:37.044Z,87.06
2018-09-16T07:23:05.919Z,84.99
2018-09-16T07:25:34.590Z,82.48
2018-09-16T07:28:04.277Z,83.48
2018-09-16T07:30:33.970Z,82.43
2018-09-16T07:33:03.617Z,81.32
2018-09-16T07:35:33.780Z,80.64
2018-09-16T07:38:04.966Z,77.36
2018-09-16T07:40:34.487Z,77.11
2018-09-16T07:43:04.016Z,76.60
2018-09-16T07:45:33.582Z,75.41
2018-09-16T07:48:02.981Z,74.31
2018-09-16T07:50:31.730Z,73.80
2018-09-16T07:53:01.348Z,74.06
2018-09-16T07:55:30.069Z,72.07
2018-09-16T07:57:58.955Z,73.96
2018-09-16T08:00:28.964Z,73.43
2018-09-16T08:02:57.777Z,71.38
2018-09-16T08:05:26.741Z,69.84
2018-09-16T08:07:55.340Z,71.23
2018-09-16T08:10:24.047Z,69.02
2018-09-16T08:12:52.609Z,66.94
2018-09-16T08:15:21.594Z,66.57
2018-09-16T08:17:50.695Z,66.38
2018-09-16T08:20:19.585Z,66.20
2018-09-16T08:22:48.180Z,61.95
2018-09-16T08:25:17.043Z,63.38
2018-09-16T08:27:46.360Z,61.28
2018-09-16T08:30:14.948Z,60.05
2018-09-16T08:32:43.756Z,60.02
2018-09-16T08:35:12.502Z,61.65
2018-09-16T08:37:41.191Z,62.99
2018-09-16T08:40:16.855Z,62.67
2018-09-16T08:42:46.395Z,62.88
2018-09-16T08:45:15.330Z,65.38
2018-09-16T08:47:44.245Z,64.01
2018-09-16T08:50:13.119Z,65.42
2018-09-16T08:52:42.028Z,63.59
2018-09-16T08:55:10.991Z,65.71
2018-09-16T08:57:39.788Z,64.07
2018-09-16T09:00:10.645Z,64.96
2018-09-16T09:02:40.008Z,64.75
2018-09-16T09:05:09.242Z,66.05
2018-09-16T09:07:37.951Z,66.25
2018-09-16T09:10:08.217Z,65.27
2018-09-16T09:12:37.015Z,63.45
2018-09-16T09:15:06.127Z,64.44
2018-09-16T09:17:34.947Z,64.28
2018-09-16T09:20:03.763Z,66.11
2018-09-16T09:22:32.559Z,62.67
2018-09-16T09:25:01.193Z,62.81
2018-09-16T09:27:30.056Z,63.13
2018-09-16T09:29:59.894Z,63.59
2018-09-16T09:32:28.869Z,64.10
2018-09-16T09:34:57.937Z,64.07
2018-09-16T09:37:27.166Z,61.84
2018-09-16T09:39:56.008Z,63.59
2018-09-16T09:42:24.900Z,60.61
2018-09-16T09:44:53.606Z,63.03
2018-09-16T09:47:22.405Z,60.06
2018-09-16T09:49:51.278Z,59.83
2018-09-16T09:52:20.162Z,60.55
2018-09-16T09:54:49.540Z,61.17
2018-09-16T09:57:18.457Z,60.53
2018-09-16T09:59:47.577Z,60.88
2018-09-16T10:02:16.701Z,60.86
2018-09-16T10:04:45.677Z,60.42
2018-09-16T10:07:14.212Z,61.10
2018-09-16T10:09:42.923Z,58.79
2018-09-16T10:12:11.906Z,59.40
2018-09-16T10:14:40.621Z,58.64
2018-09-16T10:17:09.823Z,56.78
2018-09-16T10:19:38.581Z,59.86
2018-09-16T10:22:07.666Z,56.95
2018-09-16T10:24:36.394Z,58.57
2018-09-16T10:27:05.250Z,58.33
2018-09-16T10:29:33.924Z,56.27
2018-09-16T10:32:03.113Z,56.24
2018-09-16T10:34:31.844Z,54.77
2018-09-16T10:37:00.905Z,59.02
2018-09-16T10:39:30.377Z,57.35
2018-09-16T10:41:59.065Z,57.67
2018-09-16T10:44:27.663Z,56.78
2018-09-16T10:46:59.575Z,56.66
2018-09-16T10:49:28.309Z,57.73
2018-09-16T10:51:57.343Z,56.78
2018-09-16T10:54:25.986Z,57.36
2018-09-16T10:56:55.243Z,56.09
2018-09-16T10:59:23.896Z,55.63
2018-09-16T11:01:52.547Z,53.19
2018-09-16T11:04:21.663Z,51.73
2018-09-16T11:06:50.290Z,52.93
2018-09-16T11:09:18.824Z,51.80
2018-09-16T11:11:47.413Z,52.41
2018-09-16T11:14:15.966Z,52.94
2018-09-16T11:16:44.635Z,53.08
2018-09-16T11:19:13.596Z,51.47
2018-09-16T11:21:43.169Z,51.12
2018-09-16T11:24:12.618Z,51.23
2018-09-16T11:26:41.183Z,54.06
2018-09-16T11:29:10.067Z,52.52
2018-09-16T11:31:39.086Z,52.56
2018-09-16T11:34:08.039Z,51.94
2018-09-16T11:36:36.703Z,51.21
2018-09-16T11:39:08.906Z,52.72
2018-09-16T11:41:37.714Z,51.24
2018-09-16T11:44:06.864Z,50.96
2018-09-16T11:46:36.103Z,51.89
2018-09-16T11:49:05.159Z,50.42
2018-09-16T11:51:33.977Z,50.74
2018-09-16T11:54:02.486Z,49.95
2018-09-16T11:56:32.685Z,50.28
2018-09-16T11:59:01.772Z,52.35
2018-09-16T12:01:31.269Z,49.42
2018-09-16T12:03:59.931Z,48.29
2018-09-16T12:06:28.451Z,49.71
2018-09-16T12:08:57.671Z,50.73
2018-09-16T12:11:26.977Z,49.34
2018-09-16T12:13:55.732Z,48.37
2018-09-16T12:16:25.435Z,47.49
2018-09-16T12:18:54.931Z,49.28
2018-09-16T12:21:24.313Z,47.62
2018-09-16T12:23:53.755Z,47.94
2018-09-16T12:26:23.500Z,46.58
2018-09-16T12:28:54.334Z,47.50
2018-09-16T12:31:23.036Z,47.27
2018-09-16T12:33:51.971Z,47.49
2018-09-16T12:36:20.907Z,46.50
2018-09-16T12:38:49.648Z,46.69
2018-09-16T12:41:18.732Z,46.63
2018-09-16T12:43:47.788Z,46.07
2018-09-16T12:46:16.714Z,46.89
2018-09-16T12:48:45.676Z,44.93
2018-09-16T12:51:14.505Z,44.75
2018-09-16T12:53:43.351Z,45.58
2018-09-16T12:56:12.022Z,44.09
2018-09-16T12:58:40.856Z,48.33
2018-09-16T13:01:09.612Z,44.62
2018-09-16T13:03:38.231Z,46.18
2018-09-16T13:06:07.047Z,44.31
2018-09-16T13:08:36.994Z,43.37
2018-09-16T13:11:13.083Z,45.58
2018-09-16T13:13:43.165Z,44.83
2018-09-16T13:16:18.549Z,44.63
2018-09-16T13:18:48.268Z,44.45
2018-09-16T13:21:17.456Z,45.14
2018-09-16T13:23:47.668Z,43.81
2018-09-16T13:26:16.425Z,45.28
2018-09-16T13:28:45.595Z,44.75
2018-09-16T13:31:14.731Z,46.61
2018-09-16T13:33:43.683Z,44.82
2018-09-16T13:36:12.606Z,44.60
2018-09-16T13:38:41.587Z,45.07
2018-09-16T13:41:10.319Z,44.22
2018-09-16T13:43:40.481Z,43.44
2018-09-16T13:46:09.195Z,44.02
2018-09-16T13:48:37.787Z,44.96
2018-09-16T13:51:06.766Z,44.85
2018-09-16T13:53:35.613Z,45.83
2018-09-16T13:56:04.297Z,43.90
2018-09-16T13:58:33.236Z,45.09
2018-09-16T14:01:01.787Z,44.60
2018-09-16T14:03:30.508Z,44.66
2018-09-16T14:05:59.290Z,45.15
2018-09-16T14:08:27.914Z,45.01
2018-09-16T14:10:57.335Z,43.33
2018-09-16T14:13:26.072Z,43.77
2018-09-16T14:15:55.538Z,46.04
2018-09-16T14:18:24.420Z,44.58
2018-09-16T14:20:53.371Z,45.34
2018-09-16T14:23:22.251Z,45.65
2018-09-16T14:25:51.275Z,44.62
2018-09-16T14:28:21.996Z,45.64
2018-09-16T14:30:50.944Z,46.34
2018-09-16T14:33:21.541Z,47.41
2018-09-16T14:35:50.392Z,45.29
2018-09-16T14:38:21.674Z,45.01
2018-09-16T14:40:50.544Z,45.50
2018-09-16T14:43:19.315Z,46.43
2018-09-16T14:45:48.192Z,47.56
2018-09-16T14:48:16.840Z,47.94
2018-09-16T14:50:45.600Z,46.84
2018-09-16T14:53:14.314Z,46.46
2018-09-16T14:55:42.911Z,45.86
2018-09-16T14:58:11.662Z,46.00
2018-09-16T15:00:40.474Z,45.99
2018-09-16T15:03:09.151Z,45.80
2018-09-16T15:05:37.828Z,46.56
2018-09-16T15:08:06.607Z,46.40
2018-09-16T15:10:35.560Z,46.45
2018-09-16T15:13:04.249Z,46.13
2018-09-16T15:15:32.849Z,46.15
2018-09-16T15:18:01.373Z,45.54
2018-09-16T15:20:30.081Z,44.69
2018-09-16T15:22:58.711Z,45.72
2018-09-16T15:25:27.559Z,44.60
2018-09-16T15:27:56.205Z,45.85
2018-09-16T15:30:25.647Z,47.65
2018-09-16T15:32:54.211Z,46.27
2018-09-16T15:35:23.081Z,45.85
2018-09-16T15:37:58.458Z,46.84
2018-09-16T15:40:27.008Z,47.43
2018-09-16T15:42:55.678Z,47.14
2018-09-16T15:45:24.419Z,46.91
2018-09-16T15:47:53.094Z,46.17
2018-09-16T15:50:21.735Z,46.28
2018-09-16T15:52:50.331Z,46.88
2018-09-16T15:55:18.947Z,46.34
2018-09-16T15:57:47.579Z,47.19
2018-09-16T16:00:16.390Z,48.10
2018-09-16T16:02:45.142Z,48.93
2018-09-16T16:05:14.366Z,47.73
2018-09-16T16:07:43.050Z,47.61
2018-09-16T16:10:11.873Z,47.41
2018-09-16T16:12:41.342Z,49.96
2018-09-16T16:15:10.124Z,48.14
2018-09-16T16:17:40.753Z,49.12
2018-09-16T16:20:09.419Z,48.01
2018-09-16T16:22:38.230Z,48.02
2018-09-16T16:25:07.040Z,48.37
2018-09-16T16:27:36.248Z,47.66
2018-09-16T16:30:05.351Z,48.06
2018-09-16T16:32:34.487Z,48.72
2018-09-16T16:35:03.383Z,49.42
2018-09-16T16:37:32.080Z,49.01
2018-09-16T16:40:00.859Z,48.92
2018-09-16T16:42:29.764Z,49.30
2018-09-16T16:44:58.637Z,49.05
2018-09-16T16:47:27.671Z,51.35
2018-09-16T16:49:56.752Z,53.10
2018-09-16T16:52:26.116Z,54.25
2018-09-16T16:54:55.112Z,52.82
2018-09-16T16:57:24.007Z,53.50
2018-09-16T16:59:53.129Z,53.82
2018-09-16T17:02:22.515Z,53.29
2018-09-16T17:04:52.542Z,54.17
2018-09-16T17:07:21.305Z,55.01
2018-09-16T17:09:50.416Z,56.02
2018-09-16T17:12:19.189Z,55.68
2018-09-16T17:14:47.904Z,55.39
2018-09-16T17:17:17.676Z,55.58
2018-09-16T17:19:46.456Z,55.36
2018-09-16T17:22:15.196Z,56.29
2018-09-16T17:24:44.671Z,56.13
2018-09-16T17:27:15.070Z,57.35
2018-09-16T17:29:43.986Z,57.56
2018-09-16T17:32:12.877Z,57.92
2018-09-16T17:34:41.852Z,58.34
2018-09-16T17:37:10.731Z,59.12
2018-09-16T17:39:39.631Z,59.07
2018-09-16T17:42:09.261Z,59.36
2018-09-16T17:44:37.936Z,60.39
2018-09-16T17:47:06.839Z,60.82
2018-09-16T17:49:35.528Z,61.70
2018-09-16T17:52:04.396Z,61.20
2018-09-16T17:54:33.241Z,61.28
2018-09-16T17:57:01.870Z,62.13
2018-09-16T17:59:30.942Z,62.39
2018-09-16T18:01:59.954Z,63.50
2018-09-16T18:04:28.614Z,64.31
2018-09-16T18:06:57.616Z,64.84
2018-09-16T18:09:31.241Z,67.08
2018-09-16T18:12:00.338Z,65.12
2018-09-16T18:14:28.922Z,66.20
2018-09-16T18:16:57.788Z,66.05
2018-09-16T18:19:26.235Z,65.60
2018-09-16T18:21:55.177Z,66.12
2018-09-16T18:24:24.069Z,66.17
2018-09-16T18:26:53.238Z,65.85
2018-09-16T18:29:22.200Z,66.12
2018-09-16T18:31:51.756Z,66.93
2018-09-16T18:34:20.440Z,67.53
2018-09-16T18:36:49.056Z,66.37
2018-09-16T18:39:18.183Z,66.53
2018-09-16T18:41:46.627Z,67.91
2018-09-16T18:44:15.158Z,68.37
2018-09-16T18:46:43.838Z,69.26
2018-09-16T18:49:12.625Z,69.06
2018-09-16T18:51:41.611Z,71.17
2018-09-16T18:54:11.215Z,72.33
2018-09-16T18:56:40.453Z,71.58
2018-09-16T18:59:08.995Z,70.86
2018-09-16T19:01:37.677Z,72.42
2018-09-16T19:04:06.359Z,71.64
2018-09-16T19:06:35.516Z,72.19
2018-09-16T19:09:04.850Z,71.64
2018-09-16T19:11:33.493Z,71.68
2018-09-16T19:14:02.137Z,72.60
2018-09-16T19:16:30.572Z,73.27
2018-09-16T19:18:59.045Z,72.59
2018-09-16T19:21:27.580Z,72.28
2018-09-16T19:23:55.983Z,72.96
2018-09-16T19:26:24.569Z,72.87
2018-09-16T19:28:53.116Z,73.56
2018-09-16T19:31:21.652Z,73.99
2018-09-16T19:33:50.615Z,74.14
2018-09-16T19:36:20.372Z,73.04
2018-09-16T19:38:48.891Z,74.25
2018-09-16T19:41:17.372Z,73.95
2018-09-16T19:43:45.758Z,73.71
2018-09-16T19:46:14.270Z,74.39
2018-09-16T19:48:43.416Z,74.21
2018-09-16T19:51:12.148Z,74.05
2018-09-16T19:53:40.849Z,73.40
2018-09-16T19:56:10.900Z,72.88
2018-09-16T19:58:39.644Z,71.92
2018-09-16T20:01:08.692Z,72.10
2018-09-16T20:03:37.410Z,72.48
2018-09-16T20:06:06.481Z,73.37
2018-09-16T20:08:34.933Z,72.97
2018-09-16T20:11:03.495Z,74.27
2018-09-16T20:13:31.967Z,75.22
2018-09-16T20:16:00.814Z,75.54
2018-09-16T20:18:35.975Z,72.69
2018-09-16T20:21:04.392Z,73.48
2018-09-16T20:23:32.803Z,73.05
2018-09-16T20:26:01.287Z,72.25
2018-09-16T20:28:30.043Z,73.35
2018-09-16T20:31:00.142Z,72.54
2018-09-16T20:33:28.786Z,73.08
2018-09-16T20:35:57.228Z,73.29
2018-09-16T20:38:25.663Z,72.82
2018-09-16T20:40:54.214Z,73.98
2018-09-16T20:43:23.091Z,73.25
2018-09-16T20:45:52.253Z,73.45
2018-09-16T20:48:20.718Z,74.84
2018-09-16T20:50:49.189Z,75.27
2018-09-16T20:53:17.673Z,75.38
2018-09-16T20:55:46.171Z,75.09
2018-09-16T20:58:14.602Z,75.20
2018-09-16T21:00:43.157Z,75.05
2018-09-16T21:03:11.601Z,75.69
2018-09-16T21:05:40.739Z,75.43
2018-09-16T21:08:09.145Z,75.34
2018-09-16T21:10:38.181Z,75.73
2018-09-16T21:13:06.771Z,75.99
2018-09-16T21:15:35.278Z,75.73
2018-09-16T21:18:03.740Z,75.05
2018-09-16T21:20:32.151Z,75.12
2018-09-16T21:23:00.694Z,76.02
2018-09-16T21:25:29.224Z,76.48
2018-09-16T21:27:57.602Z,78.23
2018-09-16T21:30:26.450Z,77.90
2018-09-16T21:32:55.032Z,78.58
2018-09-16T21:35:23.554Z,79.09
2018-09-16T21:37:52.510Z,78.28
2018-09-16T21:40:21.394Z,78.95
2018-09-16T21:42:49.780Z,77.73
2018-09-16T21:45:18.256Z,77.28
2018-09-16T21:47:46.760Z,77.84
2018-09-16T21:50:15.259Z,78.38
2018-09-16T21:52:43.733Z,78.69
2018-09-16T21:55:13.207Z,79.15
2018-09-16T21:57:41.704Z,79.81
2018-09-16T22:00:10.167Z,79.83
2018-09-16T22:02:38.676Z,80.82
2018-09-16T22:05:07.175Z,80.51
2018-09-16T22:07:35.616Z,79.02
2018-09-16T22:10:04.158Z,80.14
2018-09-16T22:12:32.556Z,79.11
2018-09-16T22:15:00.961Z,78.91
2018-09-16T22:17:29.441Z,79.46
2018-09-16T22:19:57.915Z,78.31
2018-09-16T22:22:26.378Z,79.36
2018-09-16T22:24:54.967Z,78.71
2018-09-16T22:27:23.937Z,78.18
2018-09-16T22:29:52.366Z,77.05
2018-09-16T22:32:21.240Z,76.98
2018-09-16T22:34:50.630Z,77.44
2018-09-16T22:37:19.073Z,77.12
2018-09-16T22:39:47.710Z,76.40
2018-09-16T22:42:16.116Z,77.14
2018-09-16T22:44:45.108Z,76.71
2018-09-16T22:47:13.703Z,75.48
2018-09-16T22:49:42.874Z,76.34
2018-09-16T22:52:11.644Z,76.51
2018-09-16T22:54:40.053Z,75.74
2018-09-16T22:57:08.646Z,76.88
2018-09-16T22:59:37.091Z,76.04
2018-09-16T23:02:05.983Z,76.26
2018-09-16T23:04:34.499Z,76.88
2018-09-16T23:07:03.054Z,76.63
2018-09-16T23:09:31.622Z,77.59
2018-09-16T23:12:00.062Z,77.17
2018-09-16T23:14:28.655Z,77.71
2018-09-16T23:16:57.089Z,77.36
2018-09-16T23:19:25.893Z,77.13
2018-09-16T23:21:54.298Z,77.76
2018-09-16T23:24:22.783Z,77.61
2018-09-16T23:26:51.197Z,78.08
2018-09-16T23:29:19.586Z,77.35
2018-09-16T23:31:47.978Z,77.02
2018-09-16T23:34:16.368Z,79.43
2018-09-16T23:36:44.834Z,79.22
2018-09-16T23:39:13.316Z,79.08
2018-09-16T23:41:41.799Z,80.31
2018-09-16T23:44:10.223Z,80.59
2018-09-16T23:46:38.879Z,80.59
2018-09-16T23:49:07.459Z,81.70
2018-09-16T23:51:35.876Z,81.37
2018-09-16T23:54:04.334Z,81.32
2018-09-16T23:56:33.667Z,81.00
2018-09-16T23:59:02.026Z,81.81
